sensor_id;sensor_type;location;lat;lon;timestamp;temperature;humidity
6114;DHT22;3087;48.392;10.836;2023-03-01T00:01:12;5.00;99.90
6114;DHT22;3087;48.392;10.836;2023-03-01T00:03:38;3.60;99.90
6114;DHT22;3087;48.392;10.836;2023-03-01T00:06:05;3.50;99.90
6114;DHT22;3087;48.392;10.836;2023-03-01T00:08:31;3.50;99.90
6114;DHT22;3087;48.392;10.836;2023-03-01T00:11:22;3.50;99.90
6114;DHT22;3087;48.392;10.836;2023-03-01T00:13:49;3.40;99.90
6114;DHT22;3087;48.392;10.836;2023-03-01T00:16:20;3.40;99.90
6114;DHT22;3087;48.392;10.836;2023-03-01T00:18:46;3.50;99.90
6114;DHT22;3087;48.392;10.836;2023-03-01T00:21:12;4.10;99.90
6114;DHT22;3087;48.392;10.836;2023-03-01T00:23:38;3.50;99.90
6114;DHT22;3087;48.392;10.836;2023-03-01T00:26:09;3.50;99.90
6114;DHT22;3087;48.392;10.836;2023-03-01T00:28:35;3.50;99.90
6114;DHT22;3087;48.392;10.836;2023-03-01T00:31:10;3.70;99.90
6114;DHT22;3087;48.392;10.836;2023-03-01T00:33:36;3.40;99.90
6114;DHT22;3087;48.392;10.836;2023-03-01T00:36:02;3.50;99.90
6114;DHT22;3087;48.392;10.836;2023-03-01T00:38:28;3.50;99.90
6114;DHT22;3087;48.392;10.836;2023-03-01T00:40:54;3.50;99.90
6114;DHT22;3087;48.392;10.836;2023-03-01T00:43:20;3.50;99.90
6114;DHT22;3087;48.392;10.836;2023-03-01T00:45:46;3.50;99.90
6114;DHT22;3087;48.392;10.836;2023-03-01T00:48:12;3.80;99.90
6114;DHT22;3087;48.392;10.836;2023-03-01T00:50:37;3.40;99.90
6114;DHT22;3087;48.392;10.836;2023-03-01T00:53:03;3.30;99.90
6114;DHT22;3087;48.392;10.836;2023-03-01T00:55:30;3.30;99.90
6114;DHT22;3087;48.392;10.836;2023-03-01T00:57:55;3.30;99.90
6114;DHT22;3087;48.392;10.836;2023-03-01T01:00:21;3.50;99.90
6114;DHT22;3087;48.392;10.836;2023-03-01T01:02:47;3.30;99.90
6114;DHT22;3087;48.392;10.836;2023-03-01T01:05:13;3.30;99.90
6114;DHT22;3087;48.392;10.836;2023-03-01T01:07:39;3.30;99.90
6114;DHT22;3087;48.392;10.836;2023-03-01T01:10:05;3.30;99.90
6114;DHT22;3087;48.392;10.836;2023-03-01T01:12:32;0.90;99.90
6114;DHT22;3087;48.392;10.836;2023-03-01T01:14:57;3.30;99.90
6114;DHT22;3087;48.392;10.836;2023-03-01T01:17:23;3.30;99.90
6114;DHT22;3087;48.392;10.836;2023-03-01T01:19:49;3.20;99.90
6114;DHT22;3087;48.392;10.836;2023-03-01T01:22:14;3.10;99.90
6114;DHT22;3087;48.392;10.836;2023-03-01T01:24:40;3.10;99.90
6114;DHT22;3087;48.392;10.836;2023-03-01T01:27:06;3.00;99.90
6114;DHT22;3087;48.392;10.836;2023-03-01T01:29:32;3.00;99.90
6114;DHT22;3087;48.392;10.836;2023-03-01T01:31:58;3.00;99.90
6114;DHT22;3087;48.392;10.836;2023-03-01T01:34:24;3.00;99.90
6114;DHT22;3087;48.392;10.836;2023-03-01T01:36:53;3.00;99.90
6114;DHT22;3087;48.392;10.836;2023-03-01T01:39:20;3.00;99.90
6114;DHT22;3087;48.392;10.836;2023-03-01T01:41:46;3.30;99.90
6114;DHT22;3087;48.392;10.836;2023-03-01T01:44:26;3.30;99.90
6114;DHT22;3087;48.392;10.836;2023-03-01T01:47:05;3.00;99.90
6114;DHT22;3087;48.392;10.836;2023-03-01T01:49:44;3.00;99.90
6114;DHT22;3087;48.392;10.836;2023-03-01T01:52:21;3.00;99.90
6114;DHT22;3087;48.392;10.836;2023-03-01T01:57:26;3.00;99.90
6114;DHT22;3087;48.392;10.836;2023-03-01T01:59:54;3.00;99.90
6114;DHT22;3087;48.392;10.836;2023-03-01T02:02:23;2.90;99.90
6114;DHT22;3087;48.392;10.836;2023-03-01T02:04:55;2.90;99.90
6114;DHT22;3087;48.392;10.836;2023-03-01T02:07:24;2.90;99.90
6114;DHT22;3087;48.392;10.836;2023-03-01T02:09:52;2.90;99.90
6114;DHT22;3087;48.392;10.836;2023-03-01T02:12:23;2.90;99.90
6114;DHT22;3087;48.392;10.836;2023-03-01T02:14:49;2.80;99.90
6114;DHT22;3087;48.392;10.836;2023-03-01T02:17:16;2.70;99.90
6114;DHT22;3087;48.392;10.836;2023-03-01T02:22:22;2.70;99.90
6114;DHT22;3087;48.392;10.836;2023-03-01T02:27:40;2.60;99.90
6114;DHT22;3087;48.392;10.836;2023-03-01T02:30:11;2.60;99.90
6114;DHT22;3087;48.392;10.836;2023-03-01T02:32:39;2.70;99.90
6114;DHT22;3087;48.392;10.836;2023-03-01T02:35:12;2.70;99.90
6114;DHT22;3087;48.392;10.836;2023-03-01T02:37:40;2.60;99.90
6114;DHT22;3087;48.392;10.836;2023-03-01T02:40:09;2.60;99.90
6114;DHT22;3087;48.392;10.836;2023-03-01T02:42:49;2.60;99.90
6114;DHT22;3087;48.392;10.836;2023-03-01T02:45:16;2.50;99.90
6114;DHT22;3087;48.392;10.836;2023-03-01T02:47:42;2.60;99.90
6114;DHT22;3087;48.392;10.836;2023-03-01T02:53:20;2.70;99.90
6114;DHT22;3087;48.392;10.836;2023-03-01T02:55:48;2.60;99.90
6114;DHT22;3087;48.392;10.836;2023-03-01T02:58:15;2.60;99.90
6114;DHT22;3087;48.392;10.836;2023-03-01T03:00:42;2.60;99.90
6114;DHT22;3087;48.392;10.836;2023-03-01T03:03:19;2.60;99.90
6114;DHT22;3087;48.392;10.836;2023-03-01T03:05:45;2.60;99.90
6114;DHT22;3087;48.392;10.836;2023-03-01T03:08:11;3.20;99.90
6114;DHT22;3087;48.392;10.836;2023-03-01T03:10:39;2.60;99.90
6114;DHT22;3087;48.392;10.836;2023-03-01T03:13:10;2.70;99.90
6114;DHT22;3087;48.392;10.836;2023-03-01T03:15:37;2.70;99.90
6114;DHT22;3087;48.392;10.836;2023-03-01T03:18:05;2.70;99.90
6114;DHT22;3087;48.392;10.836;2023-03-01T03:20:33;2.70;99.90
6114;DHT22;3087;48.392;10.836;2023-03-01T03:22:58;2.80;99.90
6114;DHT22;3087;48.392;10.836;2023-03-01T03:25:26;2.80;99.90
6114;DHT22;3087;48.392;10.836;2023-03-01T03:27:53;2.70;99.90
6114;DHT22;3087;48.392;10.836;2023-03-01T03:30:23;2.70;99.90
6114;DHT22;3087;48.392;10.836;2023-03-01T03:32:49;2.60;99.90
6114;DHT22;3087;48.392;10.836;2023-03-01T03:35:29;2.60;99.90
6114;DHT22;3087;48.392;10.836;2023-03-01T03:37:56;2.60;99.90
6114;DHT22;3087;48.392;10.836;2023-03-01T03:40:33;2.60;99.90
6114;DHT22;3087;48.392;10.836;2023-03-01T03:42:59;2.70;99.90
6114;DHT22;3087;48.392;10.836;2023-03-01T03:45:25;2.60;99.90
6114;DHT22;3087;48.392;10.836;2023-03-01T03:47:51;2.60;99.90
6114;DHT22;3087;48.392;10.836;2023-03-01T03:50:17;2.60;99.90
6114;DHT22;3087;48.392;10.836;2023-03-01T03:52:43;2.60;99.90
6114;DHT22;3087;48.392;10.836;2023-03-01T03:55:10;4.70;99.90
6114;DHT22;3087;48.392;10.836;2023-03-01T03:57:42;3.20;99.90
6114;DHT22;3087;48.392;10.836;2023-03-01T04:00:11;2.70;99.90
6114;DHT22;3087;48.392;10.836;2023-03-01T04:02:40;2.60;99.90
6114;DHT22;3087;48.392;10.836;2023-03-01T04:05:07;3.10;99.90
6114;DHT22;3087;48.392;10.836;2023-03-01T04:07:34;2.60;99.90
6114;DHT22;3087;48.392;10.836;2023-03-01T04:10:02;2.90;99.90
6114;DHT22;3087;48.392;10.836;2023-03-01T04:12:28;2.70;99.90
6114;DHT22;3087;48.392;10.836;2023-03-01T04:14:53;2.70;99.90
6114;DHT22;3087;48.392;10.836;2023-03-01T04:17:19;2.80;99.90
6114;DHT22;3087;48.392;10.836;2023-03-01T04:19:44;2.80;99.90
6114;DHT22;3087;48.392;10.836;2023-03-01T04:22:14;2.80;99.90
6114;DHT22;3087;48.392;10.836;2023-03-01T04:24:42;2.70;99.90
6114;DHT22;3087;48.392;10.836;2023-03-01T04:27:08;2.80;99.90
6114;DHT22;3087;48.392;10.836;2023-03-01T04:29:34;2.60;99.90
6114;DHT22;3087;48.392;10.836;2023-03-01T04:32:00;2.50;99.90
6114;DHT22;3087;48.392;10.836;2023-03-01T04:34:25;2.60;99.90
6114;DHT22;3087;48.392;10.836;2023-03-01T04:36:52;2.60;99.90
6114;DHT22;3087;48.392;10.836;2023-03-01T04:39:18;2.60;99.90
6114;DHT22;3087;48.392;10.836;2023-03-01T04:41:43;2.60;99.90
6114;DHT22;3087;48.392;10.836;2023-03-01T04:44:09;2.50;99.90
6114;DHT22;3087;48.392;10.836;2023-03-01T04:46:36;2.50;99.90
6114;DHT22;3087;48.392;10.836;2023-03-01T04:49:02;2.50;99.90
6114;DHT22;3087;48.392;10.836;2023-03-01T04:51:28;2.50;99.90
6114;DHT22;3087;48.392;10.836;2023-03-01T04:53:54;2.50;99.90
6114;DHT22;3087;48.392;10.836;2023-03-01T04:56:20;2.40;99.90
6114;DHT22;3087;48.392;10.836;2023-03-01T04:58:48;2.40;99.90
6114;DHT22;3087;48.392;10.836;2023-03-01T05:01:19;2.30;99.90
6114;DHT22;3087;48.392;10.836;2023-03-01T05:03:48;2.30;99.90
6114;DHT22;3087;48.392;10.836;2023-03-01T05:06:14;2.40;99.90
6114;DHT22;3087;48.392;10.836;2023-03-01T05:08:40;2.30;99.90
6114;DHT22;3087;48.392;10.836;2023-03-01T05:11:07;2.30;99.90
6114;DHT22;3087;48.392;10.836;2023-03-01T05:13:35;2.20;99.90
6114;DHT22;3087;48.392;10.836;2023-03-01T05:16:02;2.10;99.90
6114;DHT22;3087;48.392;10.836;2023-03-01T05:18:30;2.20;99.90
6114;DHT22;3087;48.392;10.836;2023-03-01T05:21:06;2.10;99.90
6114;DHT22;3087;48.392;10.836;2023-03-01T05:23:33;2.10;99.90
6114;DHT22;3087;48.392;10.836;2023-03-01T05:26:00;2.00;99.90
6114;DHT22;3087;48.392;10.836;2023-03-01T05:28:27;2.00;99.90
6114;DHT22;3087;48.392;10.836;2023-03-01T05:30:57;1.90;99.90
6114;DHT22;3087;48.392;10.836;2023-03-01T05:33:23;1.90;99.90
6114;DHT22;3087;48.392;10.836;2023-03-01T05:35:50;1.90;99.90
6114;DHT22;3087;48.392;10.836;2023-03-01T05:38:17;1.90;99.90
6114;DHT22;3087;48.392;10.836;2023-03-01T05:40:45;1.90;99.90
6114;DHT22;3087;48.392;10.836;2023-03-01T05:43:12;1.90;99.90
6114;DHT22;3087;48.392;10.836;2023-03-01T05:45:38;1.90;99.90
6114;DHT22;3087;48.392;10.836;2023-03-01T05:48:06;1.80;99.90
6114;DHT22;3087;48.392;10.836;2023-03-01T05:50:34;1.70;99.90
6114;DHT22;3087;48.392;10.836;2023-03-01T05:53:03;1.70;99.90
6114;DHT22;3087;48.392;10.836;2023-03-01T05:55:31;1.60;99.90
6114;DHT22;3087;48.392;10.836;2023-03-01T05:58:06;1.60;99.90
6114;DHT22;3087;48.392;10.836;2023-03-01T06:00:32;1.60;99.90
6114;DHT22;3087;48.392;10.836;2023-03-01T06:02:59;1.60;99.90
6114;DHT22;3087;48.392;10.836;2023-03-01T06:05:25;1.60;99.90
6114;DHT22;3087;48.392;10.836;2023-03-01T06:07:51;1.60;99.90
6114;DHT22;3087;48.392;10.836;2023-03-01T06:10:20;1.50;99.90
6114;DHT22;3087;48.392;10.836;2023-03-01T06:12:46;1.40;99.90
6114;DHT22;3087;48.392;10.836;2023-03-01T06:15:14;1.40;99.90
6114;DHT22;3087;48.392;10.836;2023-03-01T06:17:41;1.40;99.90
6114;DHT22;3087;48.392;10.836;2023-03-01T06:20:11;1.30;99.90
6114;DHT22;3087;48.392;10.836;2023-03-01T06:22:37;1.30;99.90
6114;DHT22;3087;48.392;10.836;2023-03-01T06:25:05;1.30;99.90
6114;DHT22;3087;48.392;10.836;2023-03-01T06:27:31;1.30;99.90
6114;DHT22;3087;48.392;10.836;2023-03-01T06:29:56;-0.60;99.90
6114;DHT22;3087;48.392;10.836;2023-03-01T06:32:22;1.70;99.90
6114;DHT22;3087;48.392;10.836;2023-03-01T06:34:48;1.30;99.90
6114;DHT22;3087;48.392;10.836;2023-03-01T06:37:13;1.30;99.90
6114;DHT22;3087;48.392;10.836;2023-03-01T06:39:39;1.40;99.90
6114;DHT22;3087;48.392;10.836;2023-03-01T06:42:04;1.40;99.90
6114;DHT22;3087;48.392;10.836;2023-03-01T06:44:30;1.40;99.90
6114;DHT22;3087;48.392;10.836;2023-03-01T06:46:56;1.40;99.90
6114;DHT22;3087;48.392;10.836;2023-03-01T06:49:21;1.50;99.90
6114;DHT22;3087;48.392;10.836;2023-03-01T06:51:47;1.40;99.90
6114;DHT22;3087;48.392;10.836;2023-03-01T06:54:13;1.50;99.90
6114;DHT22;3087;48.392;10.836;2023-03-01T06:56:39;2.10;99.90
6114;DHT22;3087;48.392;10.836;2023-03-01T06:59:04;1.50;99.90
6114;DHT22;3087;48.392;10.836;2023-03-01T07:01:30;1.50;99.90
6114;DHT22;3087;48.392;10.836;2023-03-01T07:03:56;1.60;99.90
6114;DHT22;3087;48.392;10.836;2023-03-01T07:06:22;1.60;99.90
6114;DHT22;3087;48.392;10.836;2023-03-01T07:08:47;1.80;99.90
6114;DHT22;3087;48.392;10.836;2023-03-01T07:11:13;2.70;99.90
6114;DHT22;3087;48.392;10.836;2023-03-01T07:13:39;3.60;99.90
6114;DHT22;3087;48.392;10.836;2023-03-01T07:16:05;3.40;99.90
6114;DHT22;3087;48.392;10.836;2023-03-01T07:18:30;3.10;99.90
6114;DHT22;3087;48.392;10.836;2023-03-01T07:20:56;4.00;99.90
6114;DHT22;3087;48.392;10.836;2023-03-01T07:23:21;2.70;99.90
6114;DHT22;3087;48.392;10.836;2023-03-01T07:25:56;2.50;99.90
6114;DHT22;3087;48.392;10.836;2023-03-01T07:28:25;2.30;99.90
6114;DHT22;3087;48.392;10.836;2023-03-01T07:30:50;2.30;99.90
6114;DHT22;3087;48.392;10.836;2023-03-01T07:33:16;2.20;99.90
6114;DHT22;3087;48.392;10.836;2023-03-01T07:35:42;2.40;99.90
6114;DHT22;3087;48.392;10.836;2023-03-01T07:38:08;2.20;99.90
6114;DHT22;3087;48.392;10.836;2023-03-01T07:40:33;2.20;99.90
6114;DHT22;3087;48.392;10.836;2023-03-01T07:42:59;2.30;99.90
6114;DHT22;3087;48.392;10.836;2023-03-01T07:45:26;2.40;99.90
6114;DHT22;3087;48.392;10.836;2023-03-01T07:47:52;2.60;99.90
6114;DHT22;3087;48.392;10.836;2023-03-01T07:50:18;2.40;99.90
6114;DHT22;3087;48.392;10.836;2023-03-01T07:52:48;2.40;99.90
6114;DHT22;3087;48.392;10.836;2023-03-01T07:55:16;2.50;99.90
6114;DHT22;3087;48.392;10.836;2023-03-01T07:57:42;2.50;99.90
6114;DHT22;3087;48.392;10.836;2023-03-01T08:00:10;2.50;99.90
6114;DHT22;3087;48.392;10.836;2023-03-01T08:02:36;2.50;99.90
6114;DHT22;3087;48.392;10.836;2023-03-01T08:05:01;2.60;99.90
6114;DHT22;3087;48.392;10.836;2023-03-01T08:07:27;2.90;99.90
6114;DHT22;3087;48.392;10.836;2023-03-01T08:09:52;2.70;99.90
6114;DHT22;3087;48.392;10.836;2023-03-01T08:12:18;2.60;99.90
6114;DHT22;3087;48.392;10.836;2023-03-01T08:14:43;2.60;99.90
6114;DHT22;3087;48.392;10.836;2023-03-01T08:17:09;2.70;99.90
6114;DHT22;3087;48.392;10.836;2023-03-01T08:19:35;3.20;99.90
6114;DHT22;3087;48.392;10.836;2023-03-01T08:22:03;2.80;99.90
6114;DHT22;3087;48.392;10.836;2023-03-01T08:24:29;2.80;99.90
6114;DHT22;3087;48.392;10.836;2023-03-01T08:26:55;2.80;99.90
6114;DHT22;3087;48.392;10.836;2023-03-01T08:29:21;2.90;99.90
6114;DHT22;3087;48.392;10.836;2023-03-01T08:31:47;2.80;99.90
6114;DHT22;3087;48.392;10.836;2023-03-01T08:34:15;2.80;99.90
6114;DHT22;3087;48.392;10.836;2023-03-01T08:36:45;2.90;99.90
6114;DHT22;3087;48.392;10.836;2023-03-01T08:39:13;3.00;99.90
6114;DHT22;3087;48.392;10.836;2023-03-01T08:41:39;3.10;99.90
6114;DHT22;3087;48.392;10.836;2023-03-01T08:44:06;3.00;99.90
6114;DHT22;3087;48.392;10.836;2023-03-01T08:46:36;3.00;99.90
6114;DHT22;3087;48.392;10.836;2023-03-01T08:49:05;3.00;99.90
6114;DHT22;3087;48.392;10.836;2023-03-01T08:51:32;3.20;99.90
6114;DHT22;3087;48.392;10.836;2023-03-01T08:54:20;3.20;99.90
6114;DHT22;3087;48.392;10.836;2023-03-01T08:56:47;3.10;99.90
6114;DHT22;3087;48.392;10.836;2023-03-01T08:59:14;3.10;99.90
6114;DHT22;3087;48.392;10.836;2023-03-01T09:01:40;3.20;99.90
6114;DHT22;3087;48.392;10.836;2023-03-01T09:04:09;3.30;99.90
6114;DHT22;3087;48.392;10.836;2023-03-01T09:06:34;3.30;99.90
6114;DHT22;3087;48.392;10.836;2023-03-01T09:09:01;3.40;99.90
6114;DHT22;3087;48.392;10.836;2023-03-01T09:11:28;3.30;99.90
6114;DHT22;3087;48.392;10.836;2023-03-01T09:13:54;1.50;99.90
6114;DHT22;3087;48.392;10.836;2023-03-01T09:16:20;3.40;99.90
6114;DHT22;3087;48.392;10.836;2023-03-01T09:18:52;3.40;99.90
6114;DHT22;3087;48.392;10.836;2023-03-01T09:21:20;3.40;99.90
6114;DHT22;3087;48.392;10.836;2023-03-01T09:23:47;3.30;99.90
6114;DHT22;3087;48.392;10.836;2023-03-01T09:26:21;3.20;99.90
6114;DHT22;3087;48.392;10.836;2023-03-01T09:28:49;3.40;99.90
6114;DHT22;3087;48.392;10.836;2023-03-01T09:31:16;3.60;99.90
6114;DHT22;3087;48.392;10.836;2023-03-01T09:33:44;3.60;99.90
6114;DHT22;3087;48.392;10.836;2023-03-01T09:36:12;3.50;99.90
6114;DHT22;3087;48.392;10.836;2023-03-01T09:38:38;3.60;99.90
6114;DHT22;3087;48.392;10.836;2023-03-01T09:41:15;3.60;99.90
6114;DHT22;3087;48.392;10.836;2023-03-01T09:43:55;3.60;99.90
6114;DHT22;3087;48.392;10.836;2023-03-01T09:46:25;3.60;99.90
6114;DHT22;3087;48.392;10.836;2023-03-01T09:48:56;3.80;99.90
6114;DHT22;3087;48.392;10.836;2023-03-01T09:51:29;4.10;99.90
6114;DHT22;3087;48.392;10.836;2023-03-01T09:53:55;4.20;99.90
6114;DHT22;3087;48.392;10.836;2023-03-01T09:56:33;6.00;99.90
6114;DHT22;3087;48.392;10.836;2023-03-01T10:04:36;4.20;99.90
6114;DHT22;3087;48.392;10.836;2023-03-01T10:09:56;6.10;99.90
6114;DHT22;3087;48.392;10.836;2023-03-01T10:12:32;6.80;99.90
6114;DHT22;3087;48.392;10.836;2023-03-01T10:15:09;6.80;99.90
6114;DHT22;3087;48.392;10.836;2023-03-01T10:17:45;7.10;99.90
6114;DHT22;3087;48.392;10.836;2023-03-01T10:20:19;7.60;99.90
6114;DHT22;3087;48.392;10.836;2023-03-01T10:22:46;7.80;99.90
6114;DHT22;3087;48.392;10.836;2023-03-01T10:25:20;8.40;99.90
6114;DHT22;3087;48.392;10.836;2023-03-01T10:27:54;8.80;99.90
6114;DHT22;3087;48.392;10.836;2023-03-01T10:30:36;9.70;99.90
6114;DHT22;3087;48.392;10.836;2023-03-01T10:33:23;9.60;99.90
6114;DHT22;3087;48.392;10.836;2023-03-01T10:35:49;9.60;99.90
6114;DHT22;3087;48.392;10.836;2023-03-01T10:38:17;9.70;99.90
6114;DHT22;3087;48.392;10.836;2023-03-01T10:41:05;10.10;99.90
6114;DHT22;3087;48.392;10.836;2023-03-01T10:43:48;10.70;99.90
6114;DHT22;3087;48.392;10.836;2023-03-01T10:46:36;10.80;98.00
6114;DHT22;3087;48.392;10.836;2023-03-01T10:49:22;11.30;97.70
6114;DHT22;3087;48.392;10.836;2023-03-01T10:51:50;11.10;95.90
6114;DHT22;3087;48.392;10.836;2023-03-01T10:54:26;11.40;98.30
6114;DHT22;3087;48.392;10.836;2023-03-01T10:56:57;12.00;96.00
6114;DHT22;3087;48.392;10.836;2023-03-01T10:59:35;12.30;94.90
6114;DHT22;3087;48.392;10.836;2023-03-01T11:02:22;12.80;94.60
6114;DHT22;3087;48.392;10.836;2023-03-01T11:07:52;12.10;92.40
6114;DHT22;3087;48.392;10.836;2023-03-01T11:10:36;12.20;92.50
6114;DHT22;3087;48.392;10.836;2023-03-01T11:15:32;12.40;91.70
6114;DHT22;3087;48.392;10.836;2023-03-01T11:17:58;11.90;92.40
6114;DHT22;3087;48.392;10.836;2023-03-01T11:20:32;11.60;91.80
6114;DHT22;3087;48.392;10.836;2023-03-01T11:23:03;11.90;92.50
6114;DHT22;3087;48.392;10.836;2023-03-01T11:25:39;14.90;93.70
6114;DHT22;3087;48.392;10.836;2023-03-01T11:28:06;13.10;92.20
6114;DHT22;3087;48.392;10.836;2023-03-01T11:30:53;13.50;90.60
6114;DHT22;3087;48.392;10.836;2023-03-01T11:33:48;13.20;90.00
6114;DHT22;3087;48.392;10.836;2023-03-01T11:42:00;13.20;91.00
6114;DHT22;3087;48.392;10.836;2023-03-01T11:44:28;14.00;91.20
6114;DHT22;3087;48.392;10.836;2023-03-01T11:47:30;14.30;90.00
6114;DHT22;3087;48.392;10.836;2023-03-01T11:52:59;14.10;87.10
6114;DHT22;3087;48.392;10.836;2023-03-01T12:08:52;15.10;87.60
6114;DHT22;3087;48.392;10.836;2023-03-01T12:12:01;15.30;86.20
6114;DHT22;3087;48.392;10.836;2023-03-01T12:17:13;15.60;85.70
6114;DHT22;3087;48.392;10.836;2023-03-01T12:42:13;16.40;78.90
6114;DHT22;3087;48.392;10.836;2023-03-01T12:48:33;16.50;80.80
6114;DHT22;3087;48.392;10.836;2023-03-01T12:51:06;16.90;79.60
6114;DHT22;3087;48.392;10.836;2023-03-01T12:53:36;17.40;81.10
6114;DHT22;3087;48.392;10.836;2023-03-01T12:56:11;17.50;81.00
6114;DHT22;3087;48.392;10.836;2023-03-01T12:58:50;17.50;78.80
6114;DHT22;3087;48.392;10.836;2023-03-01T13:07:17;15.80;74.90
6114;DHT22;3087;48.392;10.836;2023-03-01T13:12:43;16.10;77.50
6114;DHT22;3087;48.392;10.836;2023-03-01T13:18:31;16.50;77.10
6114;DHT22;3087;48.392;10.836;2023-03-01T13:26:16;16.00;75.30
6114;DHT22;3087;48.392;10.836;2023-03-01T13:34:03;15.70;77.80
6114;DHT22;3087;48.392;10.836;2023-03-01T13:39:04;16.40;76.90
6114;DHT22;3087;48.392;10.836;2023-03-01T13:46:49;16.30;76.90
6114;DHT22;3087;48.392;10.836;2023-03-01T13:49:18;16.20;75.30
6114;DHT22;3087;48.392;10.836;2023-03-01T13:51:49;15.80;74.60
6114;DHT22;3087;48.392;10.836;2023-03-01T13:54:26;16.10;79.40
6114;DHT22;3087;48.392;10.836;2023-03-01T13:56:54;15.20;74.80
6114;DHT22;3087;48.392;10.836;2023-03-01T13:59:21;14.60;76.40
6114;DHT22;3087;48.392;10.836;2023-03-01T14:01:58;14.20;76.60
6114;DHT22;3087;48.392;10.836;2023-03-01T14:04:32;13.90;78.00
6114;DHT22;3087;48.392;10.836;2023-03-01T14:07:18;14.40;78.00
6114;DHT22;3087;48.392;10.836;2023-03-01T14:09:47;14.50;78.10
6114;DHT22;3087;48.392;10.836;2023-03-01T14:13:01;14.10;77.90
6114;DHT22;3087;48.392;10.836;2023-03-01T14:15:35;13.40;78.30
6114;DHT22;3087;48.392;10.836;2023-03-01T14:18:18;13.70;80.80
6114;DHT22;3087;48.392;10.836;2023-03-01T14:20:46;14.00;82.70
6114;DHT22;3087;48.392;10.836;2023-03-01T14:23:19;14.70;80.60
6114;DHT22;3087;48.392;10.836;2023-03-01T14:25:57;15.10;79.60
6114;DHT22;3087;48.392;10.836;2023-03-01T14:28:28;14.80;77.80
6114;DHT22;3087;48.392;10.836;2023-03-01T14:30:57;14.00;77.90
6114;DHT22;3087;48.392;10.836;2023-03-01T14:33:28;13.70;81.00
6114;DHT22;3087;48.392;10.836;2023-03-01T14:38:33;13.20;82.00
6114;DHT22;3087;48.392;10.836;2023-03-01T14:41:03;12.60;81.60
6114;DHT22;3087;48.392;10.836;2023-03-01T14:43:29;12.30;81.90
6114;DHT22;3087;48.392;10.836;2023-03-01T14:45:56;11.80;82.20
6114;DHT22;3087;48.392;10.836;2023-03-01T14:48:22;11.60;83.50
6114;DHT22;3087;48.392;10.836;2023-03-01T14:50:49;11.40;84.60
6114;DHT22;3087;48.392;10.836;2023-03-01T14:53:21;11.10;86.20
6114;DHT22;3087;48.392;10.836;2023-03-01T14:55:52;10.80;84.60
6114;DHT22;3087;48.392;10.836;2023-03-01T14:58:21;10.70;87.00
6114;DHT22;3087;48.392;10.836;2023-03-01T15:00:51;10.50;86.40
6114;DHT22;3087;48.392;10.836;2023-03-01T15:03:37;10.40;87.80
6114;DHT22;3087;48.392;10.836;2023-03-01T15:06:06;10.40;88.90
6114;DHT22;3087;48.392;10.836;2023-03-01T15:08:32;10.30;88.90
6114;DHT22;3087;48.392;10.836;2023-03-01T15:11:17;10.70;89.40
6114;DHT22;3087;48.392;10.836;2023-03-01T15:13:43;10.10;89.50
6114;DHT22;3087;48.392;10.836;2023-03-01T15:18:54;9.60;91.10
6114;DHT22;3087;48.392;10.836;2023-03-01T15:21:27;9.50;91.60
6114;DHT22;3087;48.392;10.836;2023-03-01T15:24:07;9.40;92.20
6114;DHT22;3087;48.392;10.836;2023-03-01T15:26:45;9.40;92.30
6114;DHT22;3087;48.392;10.836;2023-03-01T15:29:17;9.50;92.60
6114;DHT22;3087;48.392;10.836;2023-03-01T15:31:52;9.40;92.90
6114;DHT22;3087;48.392;10.836;2023-03-01T15:36:52;9.30;93.30
6114;DHT22;3087;48.392;10.836;2023-03-01T15:44:33;9.30;93.80
6114;DHT22;3087;48.392;10.836;2023-03-01T15:47:00;9.20;94.00
6114;DHT22;3087;48.392;10.836;2023-03-01T15:49:37;9.10;94.60
6114;DHT22;3087;48.392;10.836;2023-03-01T15:52:03;9.00;94.50
6114;DHT22;3087;48.392;10.836;2023-03-01T15:54:30;9.10;94.80
6114;DHT22;3087;48.392;10.836;2023-03-01T15:56:56;9.00;95.30
6114;DHT22;3087;48.392;10.836;2023-03-01T15:59:22;9.10;95.30
6114;DHT22;3087;48.392;10.836;2023-03-01T16:01:48;9.10;95.60
6114;DHT22;3087;48.392;10.836;2023-03-01T16:04:16;9.30;95.90
6114;DHT22;3087;48.392;10.836;2023-03-01T16:06:49;9.40;96.00
6114;DHT22;3087;48.392;10.836;2023-03-01T16:09:20;9.10;96.10
6114;DHT22;3087;48.392;10.836;2023-03-01T16:11:47;9.30;96.30
6114;DHT22;3087;48.392;10.836;2023-03-01T16:14:13;9.40;96.30
6114;DHT22;3087;48.392;10.836;2023-03-01T16:16:40;9.10;96.40
6114;DHT22;3087;48.392;10.836;2023-03-01T16:19:05;9.20;96.80
6114;DHT22;3087;48.392;10.836;2023-03-01T16:21:31;9.10;96.90
6114;DHT22;3087;48.392;10.836;2023-03-01T16:23:56;8.90;97.20
6114;DHT22;3087;48.392;10.836;2023-03-01T16:26:22;8.80;97.50
6114;DHT22;3087;48.392;10.836;2023-03-01T16:28:48;8.70;97.70
6114;DHT22;3087;48.392;10.836;2023-03-01T16:31:17;8.70;97.90
6114;DHT22;3087;48.392;10.836;2023-03-01T16:33:43;8.70;98.10
6114;DHT22;3087;48.392;10.836;2023-03-01T16:36:16;9.70;98.70
6114;DHT22;3087;48.392;10.836;2023-03-01T16:38:42;8.70;98.40
6114;DHT22;3087;48.392;10.836;2023-03-01T16:41:16;8.90;98.70
6114;DHT22;3087;48.392;10.836;2023-03-01T16:43:42;8.50;98.80
6114;DHT22;3087;48.392;10.836;2023-03-01T16:46:21;8.50;99.20
6114;DHT22;3087;48.392;10.836;2023-03-01T16:48:47;8.50;99.50
6114;DHT22;3087;48.392;10.836;2023-03-01T16:51:13;8.50;99.70
6114;DHT22;3087;48.392;10.836;2023-03-01T16:53:39;8.50;99.80
6114;DHT22;3087;48.392;10.836;2023-03-01T16:56:08;8.40;99.90
6114;DHT22;3087;48.392;10.836;2023-03-01T16:58:35;8.40;99.90
6114;DHT22;3087;48.392;10.836;2023-03-01T17:01:30;8.30;99.90
6114;DHT22;3087;48.392;10.836;2023-03-01T17:04:03;8.30;99.90
6114;DHT22;3087;48.392;10.836;2023-03-01T17:06:28;8.30;99.90
6114;DHT22;3087;48.392;10.836;2023-03-01T17:08:54;8.30;99.90
6114;DHT22;3087;48.392;10.836;2023-03-01T17:11:20;8.20;99.90
6114;DHT22;3087;48.392;10.836;2023-03-01T17:13:46;8.20;99.90
6114;DHT22;3087;48.392;10.836;2023-03-01T17:16:15;8.10;99.90
6114;DHT22;3087;48.392;10.836;2023-03-01T17:18:41;8.00;99.90
6114;DHT22;3087;48.392;10.836;2023-03-01T17:21:09;8.00;99.90
6114;DHT22;3087;48.392;10.836;2023-03-01T17:23:37;8.90;99.90
6114;DHT22;3087;48.392;10.836;2023-03-01T17:26:03;7.80;99.90
6114;DHT22;3087;48.392;10.836;2023-03-01T17:28:31;7.80;99.90
6114;DHT22;3087;48.392;10.836;2023-03-01T17:30:59;7.90;99.90
6114;DHT22;3087;48.392;10.836;2023-03-01T17:33:25;8.00;99.90
6114;DHT22;3087;48.392;10.836;2023-03-01T17:35:50;8.00;99.90
6114;DHT22;3087;48.392;10.836;2023-03-01T17:38:17;7.70;99.90
6114;DHT22;3087;48.392;10.836;2023-03-01T17:40:43;7.70;99.90
6114;DHT22;3087;48.392;10.836;2023-03-01T17:43:13;7.70;99.90
6114;DHT22;3087;48.392;10.836;2023-03-01T17:45:39;8.00;99.90
6114;DHT22;3087;48.392;10.836;2023-03-01T17:48:05;7.70;99.90
6114;DHT22;3087;48.392;10.836;2023-03-01T17:50:32;7.60;99.90
6114;DHT22;3087;48.392;10.836;2023-03-01T17:52:57;7.90;99.90
6114;DHT22;3087;48.392;10.836;2023-03-01T17:55:23;7.60;99.90
6114;DHT22;3087;48.392;10.836;2023-03-01T17:57:49;8.20;99.90
6114;DHT22;3087;48.392;10.836;2023-03-01T18:00:17;7.50;99.90
6114;DHT22;3087;48.392;10.836;2023-03-01T18:02:43;7.50;99.90
6114;DHT22;3087;48.392;10.836;2023-03-01T18:05:09;7.50;99.90
6114;DHT22;3087;48.392;10.836;2023-03-01T18:07:36;7.40;99.90
6114;DHT22;3087;48.392;10.836;2023-03-01T18:10:03;4.60;99.90
6114;DHT22;3087;48.392;10.836;2023-03-01T18:12:29;7.20;99.90